Member area
Imprimable
Marche-en-Famenne, 21/10/2018, BEL - 20 km des Ardennes
List of reports > 12km - Result
Search: Page: [1]
101 Entries
 
Complains are not accepted anymore. Results are final.
Category
PosNrNameAgeNATTeamTimeTkmMoy.PlaceNameScrPtsCity
1.1115HAINAUT Inès25BEL49:254:08 14.571dam8
2.1153HOUYOUX Marie19BELHOUYOUX54:344:33 13.201juf23
3.1050EVRARD Emeline16BEL54:374:34 13.192juf25TOHOGNE
4.1038CROUQUET Cindy41BELTAF56:154:42 12.801ai133MARCHE EN FAMENNE
5.1061GESQUIÈRE Marie-Ange40BEL56:224:42 12.772ai135FOREST
6.1162MOURIAME Aurélie38BELMATHIEU56:254:43 12.762dam36
7.1069GRÉGOIRE Virginie43BEL57:264:48 12.543ai147
8.1161MEURANT Laurence41BEL57:524:50 12.444ai149JAMBES
9.1329DAMBROISE Kristel29BEL57:544:50 12.443dam50
10.1325WHITING Catherine41GBR58:464:54 12.265ai155OLM
11.1033CAPRASSE Eléonore19BEL58:534:55 12.233juf57NETTINE
12.1327MOUCHET Barbara45BEL1:00:355:03 11.896ai166
13.1118ROUBINEAU Gaëlle24FRA1:01:235:07 11.734dam69LISTRAC-DE-DURÈZE
14.1039DEFORGE Sarah29BEL1:01:285:08 11.725dam71THY-LE-CHÂTEAU
15.1296PETIT Dina34BEL1:01:335:08 11.706dam74
16.1605PALM Aurélie37BEL1:01:375:09 11.697dam75DURNAL
17.1319BRUN Caroline36BELP81:01:555:10 11.638dam78MARCHIN
18.1012MARSILI Caroline23BELCONPALUX1:02:345:13 11.519dam82
19.1166SINET Catherine43BELARCH1:02:525:15 11.457ai185FALMAGNE
20.1610DUCOCHEZ Sandrine42BEL1:03:005:15 11.438ai186
21.1164ROBINET Eva24BELHOUYOUX1:03:095:16 11.4010dam87
22.1077HÉRIN Romane16BELTEAM POSITIVE ATTITUDE1:03:235:17 11.364juf89BOMAL-SUR-OURTHE
23.1180DIERGE Laurine33BELTNT1:03:265:18 11.3511dam90NALUR
24.1190QUEVRIN Pauline22BEL1:04:205:22 11.1912dam95BRUXELLES
25.1187LONGREE Martine52BELTRIATHLIÈGE1:04:205:22 11.191ai296VILLERS LE TEMPLE
26.1328PETIT Joelle58BEL1:04:365:23 11.152ai298
27.1078HEYMAN Charline22BEL1:04:395:24 11.1413dam99FORRIÈRES
28.1067GOSSIAUX Nathalie45BEL1:05:255:28 11.019ai1103ANSEREMME
29.1148HARDENNE Lola12BEL1:05:275:28 11.005juf104MARCHE-EN-FAMENNE
30.1090LENGELLÉ Cloé39BEL1:05:545:30 10.9314dam108NIL SAINT VINCENT
31.1301ROUSSELLE Isabelle43BEL1:06:415:34 10.8010ai1112
32.1165SCHNOCK Sandra40BEL1:07:005:35 10.7511ai1114SPONTIN
33.1193CHARUE Hélène34BEL1:07:155:37 10.7115dam115
34.1173BANNEUX Catherine42BEL1:07:395:39 10.6412ai1117WAILLET
35.1073HALLEUX Armelle22BEL1:07:565:40 10.6016dam122EREZEE
36.1103MEUNIER Maïté27BELJOG'IN ATTITUDE1:08:025:41 10.5817dam124EMBOURG
37.1139BRIDOUX Sophie37BELZATAC NAMUR1:08:025:41 10.5818dam125YVOIR
38.1131WELLIN Lisa16BEL1:08:135:42 10.566juf128MARCHE-EN-FAMENNE
39.1063GILIS Vera65BELJOYEUSES GUIBOLLES1:08:285:43 10.521ai3129B-6982 SAMREE
40.1016DEMARTEAU Laetitia36BELTER BEKE1:08:285:43 10.5219dam130
41.1185HOSAY Perrine19BEL1:08:485:44 10.477juf132
42.1101MENAGE Elise16BEL1:09:335:48 10.358juf137HOTTON
43.1120SCHMITZ Jannick46BEL1:09:485:49 10.3213ai1140SOMME-LEUZE
44.1332BOULANGER Marie-Pierre55BEL1:09:575:50 10.293ai2141
45.1121SOVET Muriel45BEL1:10:195:52 10.2414ai1144HOTTON
46.1300FORGEUR Virginie31BEL1:10:205:52 10.2420dam145
47.1346DEGIVE Anne37BEL1:10:215:52 10.2421dam146
48.1113REISEN Sophie32BEL1:10:215:52 10.2422dam147TENNEVILLE
49.1310LAPAGNE Sophie31BEL1:10:255:53 10.2323dam149
50.1099MATHIAS Sabrina47BEL1:10:375:54 10.2015ai1152MARCHE
51.1317GUILMIN Manon24BEL1:10:445:54 10.1824dam155WAHA
52.1107PERSOONS Mieke50BEL1:11:235:57 10.094ai2158LOVENDEGEM
53.1072HALLET Nadine52BEL1:11:365:58 10.065ai2159LAMOULINE
54.1020BARBIEAUX Sabrina37BEL1:11:496:00 10.0325dam163EMINES
55.1049EVRARD Amelie32BEL1:12:056:01 9.9926dam165TENNEVILLE
56.1055FOURET Celine37BEL1:12:176:02 9.9627dam167MAINVAULT
57.1294GRÉGOIRE Marie-Claire54BELMAKE-A-WISH1:12:246:02 9.956ai2168BRUXELLES
58.1041DELOGNE Magali44BELCAP BEAURAING1:12:426:04 9.9116ai1170PONDRÔME
59.1345ZORATTI Katrine38BEL1:13:156:07 9.8328dam172
60.1042DE LOOF Marie40BELJCPMF HOTTON1:13:196:07 9.8217ai1173HOTTON
61.1079HYENNE Eva14BEL1:13:296:08 9.809juf174MARCHE-EN-FAMENNE
62.1315DEWANDRE Eléonore34BEL1:13:446:09 9.7729dam176
63.1344BREUSKIN Laurence38BEL1:13:546:10 9.7430dam177
64.1074HALLEZ Ester28BEL1:14:066:11 9.7231dam179SAINT-HUBERT
65.1031BULTOT Elodie32BELDVS RUNNING1:14:466:14 9.6332dam181LUSTIN
66.1604ESSERS Carinne48BEL1:15:296:18 9.5418ai1184
67.1092LETOREY Noëlle42BEL1:16:026:21 9.4719ai1187TENNEVILLE
68.1112PRÉVOST Eugénie19BEL1:16:186:22 9.4410juf188MARCHE-EN-FAMENNE
69.1100MCGIRR Catherine52BEL1:16:496:25 9.377ai2189LONGLIER
70.1019AUGUSTIN Sandrine43FRAL’ENJAMBÉE1:16:496:25 9.3720ai1190BRUSSELS
71.1054FORTIN Anne53FRA1:16:506:25 9.378ai2192BRUXELLES
72.1027BOUCHARD Caroline54FRACO31:16:566:25 9.369ai2193EBLY
73.1316ZEVENNE Stéphanie35BEL1:17:596:30 9.2333dam195
74.1184HENQUINET Isabelle36BEL1:17:596:30 9.2334dam196
75.1326DELVAUX Sophie33BEL1:18:346:33 9.1735dam198
76.1128VERDONCK Cathy53BEL1:18:536:35 9.1310ai2200MARCHE-EN-FAMENNE
77.1065GILLET Veronique52BEL1:19:006:35 9.1111ai2201HOTTON
78.1097MARIE-ODILE Prévost25BEL1:19:196:37 9.0836dam202SAINT-HUBERT
79.1141CORDY IsabelleBEL1:19:356:38 9.051xxx204
80.1318CLOOSTERMANS Karin49BEL1:19:516:40 9.0221ai1205AARTSELAAR
81.1011LUC Pauline24BELCONPALUX1:20:096:41 8.9837dam207
82.1111PRÉVOST Alice22BEL1:20:196:42 8.9738dam208MARCHE-EN-FAMENNE
83.1058GAILLIEZ Céline18BELCAF1:20:206:42 8.9611juf209BARVAUX
84.1289NYS Anne-Christine43BEL1:20:206:42 8.9622ai1210
85.1066GILLOT Laura22BEL1:21:006:45 8.8939dam211SAINT-NICOLAS
86.1323HUBLET Laurence43BEL1:21:446:49 8.8123ai1212
87.1030BREYER Sophie41BEL1:21:446:49 8.8124ai1213PONCELLE
88.2114DEHENAIN Roxanne31BEL1:21:466:49 8.8140dam214EVERE
89.2052BIZIEN Fabienne53BEL1:21:466:49 8.8112ai2215EVERE
90.1102MERNIER Laurence44BEL1:22:566:55 8.6825ai1216IZEL
91.1045DIEZ Anne-Sophie43BEL1:22:576:55 8.6826ai1217NEUFCHÂTEAU
92.1091LEPÈRE Muriel48BEL1:22:576:55 8.6827ai1218NAMUR
93.1021BERCKMANS Marie-Catherine36BEL1:25:047:06 8.4641dam220DINANT
94.1104MYRESSIOTIS Sophie49BEL1:25:257:08 8.4328ai1221MARCHE-EN-FAMENNE
95.1080JACQUEMART Nathalie49BEL1:25:267:08 8.4329ai1222LIEGE
96.1053FLABA Lise49BEL1:26:227:12 8.3430ai1223METTET
97.1171WANPRAM Daw24BELAS ADVENTURE1:26:397:14 8.3142dam224MARCHE
98.1155LUYCKX Juliette13BELHOUYOUX1:27:387:19 8.2212juf225
99.1026BLONDIAUX Adeline37BELBLONDIAUX1:27:387:19 8.2243dam226THYNES
100.1176CRUCIFIX Valérie42BELAUCUNE1:27:387:19 8.2231ai1227MAZEE
101.1298PIROTTE Stephanie36BEL1:40:578:25 7.1344dam231
DNF: did not finish; DSQ: disqualified; Speed in km/h
Page: [1]